Time;durP1;ratioP1;P1;durP2;ratioP2;P2;SDS_P1;SDS_P2;PMS_P1;PMS_P2;Temp;Humidity;BMP_temperature;BMP_pressure;BME280_temperature;BME280_humidity;BME280_pressure;Samples;Min_cycle;Max_cycle;Signal;HPM_P1;HPM_P2
2022/05/13 00:00:28;;;;;;;;;1.00;1.00;;;;;15.90;48.65;101624.97;4963320;28;45575;-76
2022/05/13 00:02:54;;;;;;;;;3.50;2.00;;;;;15.83;48.46;101620.09;4979403;28;45638;-76
2022/05/13 00:05:19;;;;;;;;;1.00;1.00;;;;;15.84;48.45;101627.19;4967071;28;45505;-76
2022/05/13 00:07:44;;;;;;;;;1.00;1.00;;;;;15.77;48.44;101615.97;4965187;28;45424;-76
2022/05/13 00:10:10;;;;;;;;;2.25;0.50;;;;;15.88;47.98;101634.09;4963082;28;47062;-76
2022/05/13 00:12:40;;;;;;;;;1.00;1.00;;;;;15.82;48.21;101621.03;4964791;28;46043;-76
2022/05/13 00:15:10;;;;;;;;;1.00;1.00;;;;;15.80;47.97;101629.19;4963851;28;45484;-76
2022/05/13 00:17:36;;;;;;;;;2.00;2.00;;;;;15.77;47.91;101619.50;4972830;28;47474;-76
2022/05/13 00:20:04;;;;;;;;;3.25;1.25;;;;;15.73;47.53;101625.19;4973380;28;45538;-76
2022/05/13 00:22:30;;;;;;;;;1.00;1.00;;;;;15.74;47.20;101635.81;4971624;28;46597;-75
2022/05/13 00:24:55;;;;;;;;;0.00;0.00;;;;;15.60;47.14;101622.38;4975872;28;45654;-76
2022/05/13 00:27:22;;;;;;;;;1.50;1.50;;;;;15.51;47.35;101618.47;4970359;28;46147;-76
2022/05/13 00:29:47;;;;;;;;;1.00;1.00;;;;;15.55;47.09;101632.53;4970775;28;45647;-75
2022/05/13 00:32:13;;;;;;;;;1.50;1.50;;;;;15.50;47.49;101621.25;4971942;28;45571;-75
2022/05/13 00:34:38;;;;;;;;;1.00;1.00;;;;;15.50;47.32;101610.50;4975370;28;45471;-75
2022/05/13 00:37:03;;;;;;;;;1.00;1.00;;;;;15.54;47.25;101628.16;4969249;28;60517;-75
2022/05/13 00:39:28;;;;;;;;;1.00;1.00;;;;;15.52;47.51;101617.50;4971480;28;45425;-75
2022/05/13 00:41:54;;;;;;;;;1.00;1.00;;;;;15.57;47.03;101621.72;4965191;28;48074;-76
2022/05/13 00:44:21;;;;;;;;;1.00;1.00;;;;;15.54;47.31;101620.94;4971683;28;45329;-76
2022/05/13 00:46:47;;;;;;;;;2.00;1.75;;;;;15.46;46.88;101617.00;4972779;28;46092;-73
2022/05/13 00:49:15;;;;;;;;;0.75;0.50;;;;;15.52;47.28;101622.88;4971803;28;45479;-75
2022/05/13 00:51:45;;;;;;;;;1.00;1.00;;;;;15.51;47.17;101615.78;4973061;28;45623;-74
2022/05/13 00:54:13;;;;;;;;;2.00;2.00;;;;;15.40;47.02;101599.50;4972760;28;45587;-74
2022/05/13 00:56:44;;;;;;;;;1.00;0.00;;;;;15.45;46.39;101624.22;4973025;28;45994;-75
2022/05/13 00:59:16;;;;;;;;;1.00;1.00;;;;;15.30;46.38;101620.66;4973293;28;45578;-75
2022/05/13 01:01:42;;;;;;;;;1.00;0.75;;;;;15.33;46.14;101622.28;4973748;28;45535;-74
2022/05/13 01:04:10;;;;;;;;;1.50;1.50;;;;;15.28;46.29;101624.41;4975973;28;45391;-74
2022/05/13 01:06:37;;;;;;;;;2.00;2.00;;;;;15.25;46.49;101619.19;4972832;28;45522;-75
2022/05/13 01:09:03;;;;;;;;;2.25;1.00;;;;;15.23;45.98;101615.78;4973011;28;45462;-75
2022/05/13 01:11:34;;;;;;;;;1.00;1.00;;;;;15.26;46.05;101613.75;4973111;28;45603;-75
2022/05/13 01:14:04;;;;;;;;;0.75;0.75;;;;;15.28;45.86;101627.09;4973074;28;45611;-75
2022/05/13 01:18:04;;;;;;;;;1.75;0.75;;;;;15.11;46.06;101609.34;4989059;28;48139;-75
2022/05/13 01:19:15;;;;;;;;;0.00;0.00;;;;;15.07;46.16;101608.66;4976549;28;45400;-75
2022/05/13 01:21:40;;;;;;;;;1.00;0.00;;;;;15.09;46.08;101621.97;4973629;28;45337;-75
2022/05/13 01:24:06;;;;;;;;;1.00;0.00;;;;;15.02;46.33;101624.16;4972546;28;45449;-75
2022/05/13 01:26:34;;;;;;;;;1.00;1.00;;;;;15.07;46.35;101632.78;4972672;28;46305;-76
2022/05/13 01:29:00;;;;;;;;;0.00;0.00;;;;;15.08;46.46;101631.84;4974220;28;45444;-74
2022/05/13 01:31:32;;;;;;;;;0.50;0.00;;;;;14.91;46.85;101616.78;4991965;28;45221;-74
2022/05/13 01:33:59;;;;;;;;;1.00;1.00;;;;;15.06;46.50;101636.44;4979647;28;45345;-74
2022/05/13 01:36:26;;;;;;;;;0.00;0.00;;;;;14.89;46.72;101625.88;4979876;28;46041;-74
2022/05/13 01:38:52;;;;;;;;;0.00;0.00;;;;;14.91;47.07;101635.56;4979991;28;45567;-74
2022/05/13 01:41:18;;;;;;;;;1.00;1.00;;;;;14.86;47.00;101628.72;4980055;28;45377;-73
2022/05/13 01:43:46;;;;;;;;;1.00;1.00;;;;;14.92;47.10;101647.13;4975887;28;45551;-73
2022/05/13 01:46:11;;;;;;;;;0.00;0.00;;;;;14.75;47.45;101625.84;4980423;28;48352;-73
2022/05/13 01:48:38;;;;;;;;;1.00;1.00;;;;;14.73;48.19;101631.28;4979868;28;45349;-74
2022/05/13 01:51:04;;;;;;;;;0.00;0.00;;;;;14.57;48.47;101609.88;4979954;28;45376;-73
2022/05/13 01:53:30;;;;;;;;;4.75;4.75;;;;;14.67;48.77;101632.50;4979711;28;45302;-74
2022/05/13 01:55:56;;;;;;;;;0.00;0.00;;;;;14.68;48.92;101638.72;4976590;28;45444;-74
2022/05/13 01:58:24;;;;;;;;;2.00;1.00;;;;;14.73;48.68;101631.28;4978863;28;45326;-74
2022/05/13 02:00:51;;;;;;;;;0.75;0.75;;;;;14.66;49.45;101636.13;4980256;28;45464;-74
2022/05/13 02:06:03;;;;;;;;;1.00;0.00;;;;;14.58;49.81;101633.06;4979332;28;45807;-74
2022/05/13 02:08:28;;;;;;;;;1.50;0.75;;;;;14.57;49.74;101623.25;4978200;28;45769;-74
2022/05/13 02:10:54;;;;;;;;;2.25;0.75;;;;;14.63;50.38;101636.31;4976111;28;45554;-74
2022/05/13 02:13:19;;;;;;;;;1.50;1.50;;;;;14.59;50.43;101634.75;4978704;28;47116;-74
2022/05/13 02:15:45;;;;;;;;;2.00;1.00;;;;;14.41;50.71;101592.97;4979388;28;53382;-73
2022/05/13 02:18:10;;;;;;;;;1.25;0.25;;;;;14.63;50.47;101630.97;4979518;28;45543;-73
2022/05/13 02:20:37;;;;;;;;;0.00;0.00;;;;;14.59;50.69;101629.41;4979637;28;45746;-74
2022/05/13 02:23:03;;;;;;;;;0.00;0.00;;;;;14.57;50.65;101625.09;4977283;28;45460;-74
2022/05/13 02:25:30;;;;;;;;;2.00;2.00;;;;;14.57;50.90;101630.44;4976017;28;48085;-74
2022/05/13 02:27:56;;;;;;;;;1.00;1.00;;;;;14.59;51.07;101648.16;4979612;28;45490;-74
2022/05/13 02:30:22;;;;;;;;;2.25;0.50;;;;;14.46;51.28;101626.56;4979184;28;45482;-75
2022/05/13 02:32:47;;;;;;;;;2.00;2.00;;;;;14.45;51.50;101623.94;4996529;28;45512;-74
2022/05/13 02:35:12;;;;;;;;;0.00;0.00;;;;;14.47;51.43;101625.59;4981832;28;45371;-74
2022/05/13 02:37:38;;;;;;;;;1.00;1.00;;;;;14.42;51.52;101619.63;4979444;28;45501;-74
2022/05/13 02:40:04;;;;;;;;;1.00;1.00;;;;;14.45;51.54;101632.84;4982179;28;45946;-74
2022/05/13 02:42:29;;;;;;;;;0.00;0.00;;;;;14.42;51.85;101643.75;4982515;28;45424;-73
2022/05/13 02:44:54;;;;;;;;;2.75;0.00;;;;;14.49;51.86;101634.41;4982494;28;45487;-74
2022/05/13 02:47:20;;;;;;;;;0.25;0.00;;;;;14.51;51.87;101637.00;4982848;28;45420;-74
2022/05/13 02:49:45;;;;;;;;;1.00;1.00;;;;;14.47;52.04;101643.50;4978541;28;45680;-74
2022/05/13 02:52:11;;;;;;;;;0.00;0.00;;;;;14.30;52.17;101620.34;4983238;28;45445;-74
2022/05/13 02:54:36;;;;;;;;;0.00;0.00;;;;;14.26;52.21;101627.72;4982415;28;45950;-74
2022/05/13 02:57:02;;;;;;;;;1.50;1.50;;;;;14.35;52.79;101637.03;4982010;28;45337;-74
2022/05/13 02:59:27;;;;;;;;;4.25;1.25;;;;;14.33;53.08;101630.03;4981207;28;47675;-75
2022/05/13 03:01:54;;;;;;;;;4.75;3.00;;;;;14.33;53.67;101630.88;4978941;28;45388;-74
2022/05/13 03:04:23;;;;;;;;;2.50;2.00;;;;;14.33;53.37;101633.56;4980477;28;46137;-74
2022/05/13 03:06:51;;;;;;;;;2.25;2.00;;;;;14.33;53.82;101630.88;4982503;28;45414;-74
2022/05/13 03:09:17;;;;;;;;;2.25;2.25;;;;;14.37;53.69;101634.25;4982115;28;45350;-74
2022/05/13 03:11:42;;;;;;;;;6.25;4.00;;;;;14.26;53.71;101625.03;4981842;28;45426;-74
2022/05/13 03:14:07;;;;;;;;;9.50;7.00;;;;;14.35;53.85;101637.03;4980269;28;45570;-74
2022/05/13 03:16:33;;;;;;;;;8.00;6.75;;;;;14.25;54.04;101635.81;4979393;28;46901;-75
2022/05/13 03:18:59;;;;;;;;;6.75;6.75;;;;;14.22;54.13;101634.19;4982730;28;45270;-74
2022/05/13 03:21:26;;;;;;;;;9.00;8.00;;;;;14.22;54.05;101626.16;4980962;28;45341;-74
2022/05/13 03:23:52;;;;;;;;;7.50;6.75;;;;;14.19;54.11;101621.00;4981796;28;45411;-74
2022/05/13 03:26:20;;;;;;;;;7.50;6.75;;;;;14.21;54.42;101634.28;4981317;28;45523;-73
2022/05/13 03:28:47;;;;;;;;;6.25;6.25;;;;;14.18;54.39;101635.31;4961845;28;45943;-74
2022/05/13 03:31:12;;;;;;;;;11.00;6.00;;;;;14.05;54.80;101620.91;4982687;28;45309;-73
2022/05/13 03:33:38;;;;;;;;;7.00;7.00;;;;;14.02;54.67;101627.31;4981544;28;46469;-73
2022/05/13 03:36:05;;;;;;;;;6.25;5.75;;;;;14.05;54.90;101620.91;4981829;28;45517;-74
2022/05/13 03:38:30;;;;;;;;;6.75;5.75;;;;;14.20;54.63;101635.22;4981839;28;45498;-74
2022/05/13 03:40:55;;;;;;;;;6.00;6.00;;;;;14.15;54.69;101627.47;4978022;28;45564;-73
2022/05/13 03:43:21;;;;;;;;;4.75;4.75;;;;;14.17;55.07;101640.78;4980062;28;46124;-74
2022/05/13 03:45:46;;;;;;;;;6.00;4.50;;;;;14.09;55.08;101621.59;4982108;28;45474;-74
2022/05/13 03:48:12;;;;;;;;;7.00;6.00;;;;;14.10;55.45;101639.38;4981408;28;45460;-73
2022/05/13 03:50:40;;;;;;;;;4.50;4.00;;;;;13.91;55.70;101602.94;4981543;28;45388;-74
2022/05/13 03:53:05;;;;;;;;;1.75;1.75;;;;;14.12;55.67;101635.69;4979376;28;46096;-73
2022/05/13 03:55:31;;;;;;;;;2.50;2.25;;;;;14.06;56.10;101623.47;4977490;28;45494;-74
2022/05/13 03:57:57;;;;;;;;;5.00;3.50;;;;;14.18;56.31;101647.84;4981998;28;45302;-73
2022/05/13 04:00:23;;;;;;;;;4.25;3.00;;;;;14.20;56.41;101638.75;4980494;28;45618;-73
2022/05/13 04:02:49;;;;;;;;;2.00;1.75;;;;;14.23;56.11;101641.25;4981162;28;46118;-73
2022/05/13 04:10:44;;;;;;;;;2.50;2.00;;;;;14.18;56.68;101651.38;4977055;28;45405;-73
2022/05/13 04:16:07;;;;;;;;;3.00;3.00;;;;;14.03;57.68;101633.50;4981354;28;45492;-74
2022/05/13 04:18:47;;;;;;;;;3.25;2.00;;;;;14.15;58.25;101648.03;4981134;28;45436;-74
2022/05/13 04:21:16;;;;;;;;;6.50;5.25;;;;;14.07;58.50;101653.81;4979701;28;45714;-74
2022/05/13 04:23:44;;;;;;;;;6.00;3.00;;;;;14.05;58.51;101643.19;4980392;28;46909;-74
2022/05/13 04:26:13;;;;;;;;;4.00;4.00;;;;;14.04;58.43;101633.41;4979674;28;45585;-74
2022/05/13 04:28:40;;;;;;;;;3.00;2.00;;;;;14.07;58.71;101654.69;4976279;28;45496;-74
2022/05/13 04:31:06;;;;;;;;;2.50;2.50;;;;;14.03;58.81;101641.53;4981162;28;45496;-74
2022/05/13 04:33:31;;;;;;;;;3.00;3.00;;;;;14.12;58.92;101656.22;4980150;28;46115;-74
2022/05/13 04:35:56;;;;;;;;;2.25;2.25;;;;;14.15;58.66;101656.91;4975424;28;45261;-74
2022/05/13 04:38:21;;;;;;;;;2.00;2.00;;;;;14.09;58.90;101646.53;4978920;28;57719;-73
2022/05/13 04:40:47;;;;;;;;;2.50;2.50;;;;;14.14;59.16;101657.88;4963873;28;45350;-74
2022/05/13 04:43:12;;;;;;;;;2.00;2.00;;;;;14.11;59.14;101667.88;4979223;28;47015;-73
2022/05/13 04:45:38;;;;;;;;;5.50;4.50;;;;;14.13;59.20;101669.53;4995233;28;45341;-74
2022/05/13 04:48:16;;;;;;;;;6.75;4.00;;;;;14.10;59.14;101661.66;4994818;28;45584;-74
2022/05/13 04:50:46;;;;;;;;;4.25;4.25;;;;;14.13;59.53;101656.13;4980173;28;45440;-74
2022/05/13 04:53:13;;;;;;;;;10.50;7.25;;;;;14.10;60.02;101660.81;4967982;28;45512;-73
2022/05/13 04:55:40;;;;;;;;;5.25;4.00;;;;;14.00;60.32;101658.63;4985104;28;45468;-74
2022/05/13 04:58:05;;;;;;;;;2.00;2.00;;;;;13.86;60.12;101645.16;4980531;28;45400;-73
2022/05/13 05:00:31;;;;;;;;;2.00;2.00;;;;;13.95;60.61;101668.75;4979588;28;45309;-74
2022/05/13 05:02:56;;;;;;;;;6.75;5.75;;;;;14.00;60.40;101664.00;4979642;28;46459;-73
2022/05/13 05:05:22;;;;;;;;;2.00;2.00;;;;;13.99;60.48;101672.97;4994215;28;45481;-74
2022/05/13 05:07:48;;;;;;;;;3.25;3.25;;;;;13.78;60.75;101648.25;4975613;28;45797;-73
2022/05/13 05:10:14;;;;;;;;;3.00;3.00;;;;;13.99;60.34;101672.97;4980408;28;45243;-74
2022/05/13 05:12:40;;;;;;;;;4.25;2.75;;;;;14.04;60.17;101678.06;4979447;28;46224;-74
2022/05/13 05:15:08;;;;;;;;;4.75;3.00;;;;;14.01;60.35;101676.41;4979682;28;45404;-73
2022/05/13 05:17:33;;;;;;;;;3.50;2.00;;;;;14.07;59.96;101678.78;4979534;28;45573;-73
2022/05/13 05:19:58;;;;;;;;;4.25;4.25;;;;;13.98;60.23;101673.91;4976619;28;45563;-73
2022/05/13 05:22:24;;;;;;;;;2.00;2.00;;;;;14.03;60.23;101682.56;4978813;28;45615;-74
2022/05/13 05:24:49;;;;;;;;;2.50;2.00;;;;;14.12;59.96;101693.69;4979128;28;45442;-73
2022/05/13 05:27:15;;;;;;;;;4.50;3.00;;;;;14.14;59.80;101689.13;4980262;28;45314;-73
2022/05/13 05:29:42;;;;;;;;;2.00;2.00;;;;;14.13;60.22;101688.25;4980078;28;45484;-73
2022/05/13 05:32:08;;;;;;;;;3.75;3.25;;;;;14.14;59.88;101687.34;4978349;28;46081;-73
2022/05/13 05:34:34;;;;;;;;;4.00;4.00;;;;;14.07;60.43;101696.66;4977224;28;45508;-73
2022/05/13 05:36:59;;;;;;;;;6.00;4.50;;;;;14.07;59.96;101696.66;4980181;28;45495;-75
2022/05/13 05:39:24;;;;;;;;;4.00;4.00;;;;;14.11;59.79;101700.88;4980110;28;45316;-73
2022/05/13 05:41:50;;;;;;;;;4.00;4.00;;;;;14.18;60.07;101714.78;4979921;28;46475;-73
2022/05/13 05:44:15;;;;;;;;;7.00;6.75;;;;;14.12;59.42;101699.94;4978874;28;45465;-73
2022/05/13 05:46:40;;;;;;;;;5.00;4.00;;;;;14.13;59.08;101715.03;4976444;28;45469;-73
2022/05/13 05:49:05;;;;;;;;;4.25;4.25;;;;;13.94;59.22;101692.91;4978972;28;48669;-74
2022/05/13 05:51:31;;;;;;;;;3.00;3.00;;;;;14.00;59.28;101716.69;4979108;28;45936;-73
2022/05/13 05:59:25;;;;;;;;;2.75;2.75;;;;;14.11;59.09;101714.25;4979548;28;45456;-74
2022/05/13 06:01:51;;;;;;;;;2.00;2.00;;;;;14.15;59.05;101721.19;4976832;28;45556;-74
2022/05/13 06:04:16;;;;;;;;;4.00;4.00;;;;;14.13;59.03;101723.06;4974523;28;45428;-74
2022/05/13 06:06:41;;;;;;;;;5.00;3.50;;;;;14.21;58.83;101726.19;4978447;28;45472;-74
2022/05/13 06:09:08;;;;;;;;;3.00;3.00;;;;;14.21;58.01;101725.31;4977982;28;45501;-73
2022/05/13 06:11:33;;;;;;;;;3.00;3.00;;;;;14.15;57.95;101714.97;4974956;28;46185;-73
2022/05/13 06:13:59;;;;;;;;;3.00;3.00;;;;;14.23;57.84;101737.69;4973800;28;45831;-73
2022/05/13 06:16:27;;;;;;;;;2.00;2.00;;;;;14.26;56.68;101742.00;4980889;28;45684;-73
2022/05/13 06:18:53;;;;;;;;;1.75;1.75;;;;;14.27;56.50;101739.25;4978543;28;45425;-73
2022/05/13 06:21:18;;;;;;;;;2.00;2.00;;;;;14.31;56.53;101734.59;4973894;28;47115;-73
2022/05/13 06:23:44;;;;;;;;;4.50;1.75;;;;;14.28;55.72;101740.97;4975131;28;45451;-72
2022/05/13 06:26:10;;;;;;;;;4.00;3.00;;;;;14.32;56.40;101748.84;4976896;28;48714;-72
2022/05/13 06:28:36;;;;;;;;;4.00;3.00;;;;;14.31;56.16;101744.41;4989160;28;45546;-73
2022/05/13 06:31:01;;;;;;;;;2.75;2.75;;;;;14.40;56.21;101759.97;4978354;28;46287;-72
2022/05/13 06:33:27;;;;;;;;;4.25;3.00;;;;;14.37;56.52;101755.66;4989980;28;45317;-73
2022/05/13 06:35:52;;;;;;;;;3.00;2.50;;;;;14.40;56.12;101754.63;4985404;28;45371;-73
2022/05/13 06:38:20;;;;;;;;;3.50;3.50;;;;;14.51;56.06;101762.09;4978157;28;45922;-72
2022/05/13 06:40:47;;;;;;;;;4.00;3.00;;;;;14.51;56.27;101759.41;4978851;28;46204;-72
2022/05/13 06:43:13;;;;;;;;;4.75;4.50;;;;;14.54;56.24;101764.59;4975461;28;45480;-72
2022/05/13 06:45:38;;;;;;;;;2.00;2.00;;;;;14.57;54.67;101765.28;4982239;28;45800;-72
2022/05/13 06:48:05;;;;;;;;;3.50;2.25;;;;;14.63;54.65;101756.91;4995700;28;45458;-73
2022/05/13 06:50:31;;;;;;;;;2.00;2.00;;;;;14.65;54.99;101755.00;4968370;28;45599;-72
2022/05/13 06:52:56;;;;;;;;;2.50;2.50;;;;;14.65;54.16;101759.53;4977175;28;45483;-73
2022/05/13 06:55:22;;;;;;;;;3.50;2.00;;;;;14.75;53.98;101771.44;4976025;28;45449;-72
2022/05/13 06:57:47;;;;;;;;;2.00;1.25;;;;;14.76;53.83;101769.63;4984703;28;45504;-72
2022/05/13 07:00:13;;;;;;;;;1.00;1.00;;;;;14.68;52.85;101767.38;4981722;28;48325;-74
2022/05/13 07:02:38;;;;;;;;;2.00;2.00;;;;;14.63;52.76;101775.66;4980484;28;45361;-75
2022/05/13 07:05:04;;;;;;;;;3.00;3.00;;;;;14.62;52.25;101770.38;4990217;28;45524;-74
2022/05/13 07:07:30;;;;;;;;;1.00;1.00;;;;;14.68;52.55;101770.06;4977611;28;45389;-74
2022/05/13 07:09:55;;;;;;;;;2.00;2.00;;;;;14.82;51.99;101788.03;4972731;28;46056;-75
2022/05/13 07:12:21;;;;;;;;;3.25;0.75;;;;;14.82;51.68;101780.84;4981733;28;46364;-75
2022/05/13 07:14:46;;;;;;;;;1.00;1.00;;;;;14.75;51.16;101768.75;4984818;28;45473;-74
2022/05/13 07:17:11;;;;;;;;;1.00;1.00;;;;;14.90;51.50;101778.59;4978764;28;45508;-75
2022/05/13 07:19:37;;;;;;;;;0.75;0.75;;;;;14.98;51.93;101778.13;4976507;28;45600;-74
2022/05/13 07:22:03;;;;;;;;;0.75;0.00;;;;;15.01;51.74;101769.03;4980725;28;45654;-73
2022/05/13 07:24:29;;;;;;;;;3.00;2.00;;;;;14.98;50.21;101756.69;4981654;28;45451;-74
2022/05/13 07:26:55;;;;;;;;;1.25;1.00;;;;;15.18;50.05;101778.81;4980146;28;45705;-74
2022/05/13 07:29:20;;;;;;;;;1.00;1.00;;;;;15.06;49.96;101761.63;4981252;28;46106;-74
2022/05/13 07:31:46;;;;;;;;;1.00;1.00;;;;;15.20;48.92;101776.88;4990672;28;45535;-74
2022/05/13 07:34:11;;;;;;;;;1.75;1.75;;;;;15.17;48.15;101771.72;4978643;28;45483;-73
2022/05/13 07:36:37;;;;;;;;;2.50;1.50;;;;;15.12;47.18;101766.59;4976470;28;45479;-73
2022/05/13 07:41:47;;;;;;;;;9.00;7.00;;;;;15.20;47.10;101783.13;4983437;28;45428;-74
2022/05/13 07:44:12;;;;;;;;;4.00;4.00;;;;;15.14;47.11;101767.38;4991817;28;45519;-74
2022/05/13 07:46:38;;;;;;;;;7.75;7.75;;;;;15.24;47.59;101778.44;4980769;28;45480;-75
2022/05/13 07:49:05;;;;;;;;;4.50;2.00;;;;;15.28;47.08;101785.34;4979569;28;46262;-75
2022/05/13 07:51:30;;;;;;;;;2.25;2.25;;;;;15.35;47.79;101778.69;4979293;28;45587;-75
2022/05/13 07:53:55;;;;;;;;;2.50;1.00;;;;;15.53;48.46;101785.59;4983424;28;45702;-75
2022/05/13 07:56:21;;;;;;;;;2.00;2.00;;;;;15.55;45.98;101783.69;4975855;28;49980;-75
2022/05/13 07:58:46;;;;;;;;;1.75;1.50;;;;;15.49;46.27;101780.50;4982057;28;63992;-75
2022/05/13 08:01:11;;;;;;;;;2.00;2.00;;;;;15.58;46.95;101784.47;4981140;28;45362;-76
2022/05/13 08:03:37;;;;;;;;;4.00;3.00;;;;;15.50;46.87;101785.78;4975334;28;45251;-76
2022/05/13 08:06:03;;;;;;;;;2.50;2.00;;;;;15.61;47.75;101778.91;4976365;28;45598;-76
2022/05/13 08:08:42;;;;;;;;;1.00;1.00;;;;;15.63;46.13;101769.81;4979782;28;46324;-76
2022/05/13 08:11:13;;;;;;;;;1.00;1.00;;;;;15.83;47.32;101790.13;4977857;28;45930;-76
2022/05/13 08:13:40;;;;;;;;;3.00;1.50;;;;;15.90;45.61;101783.41;4974347;28;45360;-77
2022/05/13 08:16:10;;;;;;;;;4.00;2.75;;;;;15.99;45.61;101792.69;4977340;28;45347;-76
2022/05/13 08:18:35;;;;;;;;;2.00;2.00;;;;;16.06;44.97;101788.69;4977215;28;46318;-76
2022/05/13 08:21:01;;;;;;;;;2.00;2.00;;;;;16.17;45.49;101786.19;4978384;28;45479;-77
2022/05/13 08:23:27;;;;;;;;;4.00;1.00;;;;;16.24;44.85;101783.97;4977605;28;45388;-76
2022/05/13 08:25:52;;;;;;;;;1.25;1.25;;;;;16.21;44.69;101767.19;4976144;28;45478;-76
2022/05/13 08:28:20;;;;;;;;;0.50;0.50;;;;;16.27;43.21;101786.47;4976043;28;46186;-77
2022/05/13 08:30:45;;;;;;;;;1.75;1.75;;;;;16.20;43.82;101771.69;4976133;28;46793;-76
2022/05/13 08:33:11;;;;;;;;;5.75;3.25;;;;;16.28;44.29;101772.06;4980824;28;45460;-76
2022/05/13 08:35:49;;;;;;;;;8.75;7.50;;;;;16.33;44.59;101779.84;4983095;28;45595;-76
2022/05/13 08:38:16;;;;;;;;;2.00;1.75;;;;;16.36;44.48;101791.25;4991013;28;47896;-76
2022/05/13 08:40:51;;;;;;;;;1.50;1.50;;;;;16.42;44.92;101789.16;4991112;28;45309;-76
2022/05/13 08:43:21;;;;;;;;;1.00;1.00;;;;;16.35;44.46;101768.03;4979631;28;45431;-75
2022/05/13 08:45:53;;;;;;;;;2.25;1.25;;;;;16.48;44.13;101769.94;4984349;28;45549;-75
2022/05/13 08:48:30;;;;;;;;;1.50;1.50;;;;;16.58;43.92;101787.19;4977042;28;48534;-76
2022/05/13 08:51:06;;;;;;;;;1.75;1.75;;;;;16.65;43.62;101801.97;4973118;28;45380;-76
2022/05/13 08:53:42;;;;;;;;;2.25;1.50;;;;;16.57;43.24;101780.97;4979383;28;45614;-75
2022/05/13 08:56:10;;;;;;;;;3.00;1.75;;;;;16.65;43.89;101787.69;4974357;28;45508;-76
2022/05/13 08:58:49;;;;;;;;;2.00;2.00;;;;;16.68;44.26;101785.63;4975960;28;46246;-75
2022/05/13 09:01:28;;;;;;;;;0.75;0.75;;;;;16.68;43.83;101784.78;4975369;28;45279;-75
2022/05/13 09:04:01;;;;;;;;;3.25;2.25;;;;;16.65;44.45;101774.22;4974796;28;45410;-76
2022/05/13 09:06:39;;;;;;;;;2.25;2.25;;;;;16.65;44.71;101776.91;4975334;28;45317;-76
2022/05/13 09:09:08;;;;;;;;;3.25;3.00;;;;;16.75;45.38;101778.03;4975854;28;46808;-75
2022/05/13 09:11:48;;;;;;;;;3.50;1.50;;;;;16.72;44.97;101771.03;4972483;28;45482;-75
2022/05/13 09:14:41;;;;;;;;;4.00;3.00;;;;;16.95;45.20;101782.97;4976425;28;45480;-75
2022/05/13 09:17:06;;;;;;;;;2.00;1.00;;;;;17.01;43.18;101781.72;4974509;28;45376;-76
2022/05/13 09:19:36;;;;;;;;;3.00;1.75;;;;;16.99;43.75;101776.44;4976555;28;46445;-75
2022/05/13 09:22:04;;;;;;;;;2.00;2.00;;;;;17.07;43.26;101781.31;4976782;28;45609;-76
2022/05/13 09:24:30;;;;;;;;;1.50;1.00;;;;;17.08;43.23;101782.16;4973230;28;45610;-75
2022/05/13 09:26:55;;;;;;;;;2.00;2.00;;;;;16.96;43.65;101740.84;4975627;28;45609;-75
2022/05/13 09:29:21;;;;;;;;;2.75;1.25;;;;;17.08;43.74;101761.53;4973260;28;45588;-76
2022/05/13 09:32:01;;;;;;;;;2.50;2.50;;;;;17.24;43.67;101777.47;4975945;28;45795;-76
2022/05/13 09:34:46;;;;;;;;;7.00;7.00;;;;;17.24;43.66;101778.38;4975814;28;45364;-75
2022/05/13 09:37:21;;;;;;;;;12.50;12.50;;;;;17.29;43.54;101786.09;4977192;28;45274;-75
2022/05/13 09:39:50;;;;;;;;;8.25;8.25;;;;;17.38;43.83;101781.94;4974239;28;45337;-75
2022/05/13 09:42:20;;;;;;;;;5.00;2.00;;;;;17.35;44.29;101772.25;4977608;28;45385;-76
2022/05/13 09:44:46;;;;;;;;;5.25;3.75;;;;;17.41;43.79;101777.22;4979311;28;45546;-76
2022/05/13 09:47:17;;;;;;;;;3.00;2.00;;;;;17.50;43.10;101767.63;4976746;28;45505;-76
2022/05/13 09:49:46;;;;;;;;;0.50;0.50;;;;;17.63;43.37;101779.28;4973266;28;45553;-76
2022/05/13 09:52:16;;;;;;;;;1.50;1.50;;;;;17.70;42.40;101770.75;4975554;28;45524;-77
2022/05/13 09:54:47;;;;;;;;;2.00;2.00;;;;;17.73;42.68;101779.50;4978573;28;45425;-77
2022/05/13 09:57:21;;;;;;;;;3.25;3.00;;;;;17.59;43.33;101760.75;4978417;28;45397;-76
2022/05/13 09:59:53;;;;;;;;;3.00;2.75;;;;;17.73;42.91;101762.50;4978900;28;45483;-76
2022/05/13 10:02:29;;;;;;;;;2.00;2.00;;;;;17.80;42.72;101764.69;4979123;28;45417;-76
2022/05/13 10:05:19;;;;;;;;;2.00;2.00;;;;;17.85;42.21;101757.13;4975839;28;45458;-76
2022/05/13 10:07:53;;;;;;;;;1.00;1.00;;;;;18.03;43.46;101764.88;4973636;28;45713;-77
2022/05/13 10:16:05;;;;;;;;;2.50;1.50;;;;;18.41;41.65;101756.72;4979838;28;45507;-76
2022/05/13 10:18:34;;;;;;;;;2.25;2.25;;;;;18.43;40.83;101749.38;4979183;28;45515;-76
2022/05/13 10:21:08;;;;;;;;;2.00;1.25;;;;;18.53;42.14;101746.88;4978678;28;45404;-76
2022/05/13 10:23:53;;;;;;;;;2.00;2.00;;;;;18.73;41.79;101756.19;4977600;28;45622;-77
2022/05/13 10:26:22;;;;;;;;;1.25;1.25;;;;;18.76;39.73;101757.78;4978187;28;45390;-76
2022/05/13 10:29:04;;;;;;;;;2.75;2.75;;;;;18.76;39.98;101755.09;4959349;28;45310;-78
2022/05/13 10:31:34;;;;;;;;;1.00;1.00;;;;;18.79;40.44;101753.06;4976104;28;46021;-76
2022/05/13 10:34:29;;;;;;;;;3.00;1.75;;;;;18.73;40.22;101748.09;4977330;28;45401;-77
2022/05/13 10:37:10;;;;;;;;;3.00;3.00;;;;;18.72;39.79;101731.03;4994153;28;45571;-77
2022/05/13 10:39:44;;;;;;;;;1.25;1.25;;;;;19.01;40.88;101740.66;4978232;28;45435;-79
2022/05/13 10:42:18;;;;;;;;;3.25;2.75;;;;;19.11;39.09;101737.13;4993833;28;48118;-77
2022/05/13 10:45:05;;;;;;;;;1.00;1.00;;;;;19.12;38.52;101737.97;4978585;28;45493;-77
2022/05/13 10:47:40;;;;;;;;;2.25;2.00;;;;;19.02;38.97;101729.72;4978722;28;45311;-77
2022/05/13 10:50:17;;;;;;;;;1.50;1.50;;;;;19.15;39.09;101740.47;4990499;28;45454;-77
2022/05/13 10:53:07;;;;;;;;;6.00;6.00;;;;;19.20;37.89;101740.13;4974750;28;46613;-77
2022/05/13 10:55:51;;;;;;;;;2.00;2.00;;;;;19.23;38.24;101720.97;4991244;28;45717;-77
2022/05/13 10:58:28;;;;;;;;;2.00;2.00;;;;;19.57;39.16;101732.72;4990451;28;45447;-77
2022/05/13 11:01:05;;;;;;;;;2.25;2.00;;;;;19.85;38.96;101727.88;4980364;28;45351;-77
2022/05/13 11:03:55;;;;;;;;;3.00;2.00;;;;;20.08;37.72;101731.44;4981539;28;46296;-76
2022/05/13 11:06:42;;;;;;;;;5.00;3.00;;;;;20.30;38.51;101717.91;4981444;28;45489;-77
2022/05/13 11:09:13;;;;;;;;;3.25;2.75;;;;;20.57;37.83;101722.06;4981664;28;45350;-77
2022/05/13 11:11:42;;;;;;;;;2.00;2.00;;;;;20.78;37.90;101720.28;4981895;28;45333;-77
2022/05/13 11:14:32;;;;;;;;;3.00;1.50;;;;;20.95;36.34;101712.56;4980040;28;45380;-77
2022/05/13 11:17:42;;;;;;;;;2.00;2.00;;;;;21.10;36.42;101711.28;4978969;28;46516;-77
2022/05/13 11:20:24;;;;;;;;;2.25;2.25;;;;;21.18;35.17;101713.31;4952743;28;45500;-77
2022/05/13 11:23:06;;;;;;;;;5.00;2.00;;;;;21.32;34.68;101714.84;4940325;28;45533;-77
2022/05/13 11:25:54;;;;;;;;;8.50;7.50;;;;;21.35;34.27;101710.00;4939086;28;48585;-77
2022/05/13 11:28:37;;;;;;;;;5.00;5.00;;;;;21.36;34.46;101711.75;4937117;28;45415;-77
2022/05/13 11:31:23;;;;;;;;;9.50;7.50;;;;;21.52;34.03;101699.59;4956000;28;47113;-77
2022/05/13 11:34:08;;;;;;;;;12.25;10.50;;;;;21.75;34.44;101711.13;4951481;28;45530;-77
2022/05/13 11:36:39;;;;;;;;;2.25;2.25;;;;;21.83;33.21;101703.19;4950806;28;45548;-77
2022/05/13 11:39:20;;;;;;;;;3.50;2.25;;;;;21.81;32.77;101703.31;4950527;28;45391;-77
2022/05/13 11:42:00;;;;;;;;;3.00;3.00;;;;;21.75;32.61;101697.59;4951170;28;45295;-77
2022/05/13 11:44:40;;;;;;;;;7.00;7.00;;;;;21.60;33.63;101691.63;4951299;28;45399;-77
2022/05/13 11:47:14;;;;;;;;;3.00;2.00;;;;;21.81;33.99;101695.16;4953158;28;46137;-77
2022/05/13 11:49:43;;;;;;;;;3.00;3.00;;;;;21.95;32.82;101688.53;4952706;28;45766;-77
2022/05/13 11:52:11;;;;;;;;;5.00;3.25;;;;;21.97;32.63;101697.38;4955592;28;45432;-77
2022/05/13 11:54:39;;;;;;;;;2.00;2.00;;;;;21.90;32.19;101686.22;4959256;28;45492;-77
2022/05/13 11:57:27;;;;;;;;;2.25;2.25;;;;;21.94;32.37;101686.81;4980919;28;46143;-77